sensor_id;sensor_type;location;lat;lon;timestamp;temperature;humidity
3940;DHT22;1984;48.312;9.244;2023-12-22T00:01:14;5.70;99.90
3940;DHT22;1984;48.312;9.244;2023-12-22T00:03:43;5.70;99.90
3940;DHT22;1984;48.312;9.244;2023-12-22T00:06:11;5.80;99.90
3940;DHT22;1984;48.312;9.244;2023-12-22T00:08:37;5.80;99.90
3940;DHT22;1984;48.312;9.244;2023-12-22T00:11:03;5.70;99.90
3940;DHT22;1984;48.312;9.244;2023-12-22T00:13:28;5.70;99.90
3940;DHT22;1984;48.312;9.244;2023-12-22T00:15:54;5.60;99.90
3940;DHT22;1984;48.312;9.244;2023-12-22T00:18:19;5.60;99.90
3940;DHT22;1984;48.312;9.244;2023-12-22T00:20:45;5.60;99.90
3940;DHT22;1984;48.312;9.244;2023-12-22T00:23:10;5.60;99.90
3940;DHT22;1984;48.312;9.244;2023-12-22T00:25:36;5.60;99.90
3940;DHT22;1984;48.312;9.244;2023-12-22T00:28:01;5.50;99.90
3940;DHT22;1984;48.312;9.244;2023-12-22T00:30:27;5.50;99.90
3940;DHT22;1984;48.312;9.244;2023-12-22T00:32:52;5.50;99.90
3940;DHT22;1984;48.312;9.244;2023-12-22T00:35:18;5.50;99.90
3940;DHT22;1984;48.312;9.244;2023-12-22T00:37:43;5.50;99.90
3940;DHT22;1984;48.312;9.244;2023-12-22T00:40:09;5.50;99.90
3940;DHT22;1984;48.312;9.244;2023-12-22T00:42:35;5.50;99.90
3940;DHT22;1984;48.312;9.244;2023-12-22T00:45:01;5.50;99.90
3940;DHT22;1984;48.312;9.244;2023-12-22T00:47:27;5.50;99.90
3940;DHT22;1984;48.312;9.244;2023-12-22T00:49:53;5.50;99.90
3940;DHT22;1984;48.312;9.244;2023-12-22T00:52:18;5.50;99.90
3940;DHT22;1984;48.312;9.244;2023-12-22T00:54:43;5.50;99.90
3940;DHT22;1984;48.312;9.244;2023-12-22T00:57:09;5.50;99.90
3940;DHT22;1984;48.312;9.244;2023-12-22T00:59:34;5.50;99.90
3940;DHT22;1984;48.312;9.244;2023-12-22T01:02:00;5.40;99.90
3940;DHT22;1984;48.312;9.244;2023-12-22T01:04:25;5.40;99.90
3940;DHT22;1984;48.312;9.244;2023-12-22T01:06:51;5.50;99.90
3940;DHT22;1984;48.312;9.244;2023-12-22T01:09:18;5.50;99.90
3940;DHT22;1984;48.312;9.244;2023-12-22T01:11:45;5.50;99.90
3940;DHT22;1984;48.312;9.244;2023-12-22T01:14:11;5.50;99.90
3940;DHT22;1984;48.312;9.244;2023-12-22T01:16:38;5.40;99.90
3940;DHT22;1984;48.312;9.244;2023-12-22T01:19:04;5.40;99.90
3940;DHT22;1984;48.312;9.244;2023-12-22T01:21:29;5.30;99.90
3940;DHT22;1984;48.312;9.244;2023-12-22T01:23:55;5.30;99.90
3940;DHT22;1984;48.312;9.244;2023-12-22T01:26:20;5.30;99.90
3940;DHT22;1984;48.312;9.244;2023-12-22T01:28:46;5.20;99.90
3940;DHT22;1984;48.312;9.244;2023-12-22T01:31:11;5.30;99.90
3940;DHT22;1984;48.312;9.244;2023-12-22T01:33:37;5.20;99.90
3940;DHT22;1984;48.312;9.244;2023-12-22T01:36:03;5.20;99.90
3940;DHT22;1984;48.312;9.244;2023-12-22T01:38:28;5.10;99.90
3940;DHT22;1984;48.312;9.244;2023-12-22T01:40:54;5.10;99.90
3940;DHT22;1984;48.312;9.244;2023-12-22T01:43:19;5.20;99.90
3940;DHT22;1984;48.312;9.244;2023-12-22T01:45:48;5.20;99.90
3940;DHT22;1984;48.312;9.244;2023-12-22T01:48:14;5.10;99.90
3940;DHT22;1984;48.312;9.244;2023-12-22T01:50:40;5.10;99.90
3940;DHT22;1984;48.312;9.244;2023-12-22T01:53:06;5.10;99.90
3940;DHT22;1984;48.312;9.244;2023-12-22T01:55:32;5.10;99.90
3940;DHT22;1984;48.312;9.244;2023-12-22T01:57:58;5.10;99.90
3940;DHT22;1984;48.312;9.244;2023-12-22T02:00:24;5.20;99.90
3940;DHT22;1984;48.312;9.244;2023-12-22T02:02:50;5.20;99.90
3940;DHT22;1984;48.312;9.244;2023-12-22T02:05:16;5.20;99.90
3940;DHT22;1984;48.312;9.244;2023-12-22T02:07:42;5.20;99.90
3940;DHT22;1984;48.312;9.244;2023-12-22T02:10:08;5.20;99.90
3940;DHT22;1984;48.312;9.244;2023-12-22T02:12:37;5.20;99.90
3940;DHT22;1984;48.312;9.244;2023-12-22T02:15:03;5.20;99.90
3940;DHT22;1984;48.312;9.244;2023-12-22T02:17:55;5.10;99.90
3940;DHT22;1984;48.312;9.244;2023-12-22T02:20:23;5.00;99.90
3940;DHT22;1984;48.312;9.244;2023-12-22T02:22:53;4.90;99.90
3940;DHT22;1984;48.312;9.244;2023-12-22T02:25:19;4.80;99.90
3940;DHT22;1984;48.312;9.244;2023-12-22T02:27:53;4.70;99.90
3940;DHT22;1984;48.312;9.244;2023-12-22T02:30:26;4.70;99.90
3940;DHT22;1984;48.312;9.244;2023-12-22T02:32:55;4.80;99.90
3940;DHT22;1984;48.312;9.244;2023-12-22T02:35:24;4.80;99.90
3940;DHT22;1984;48.312;9.244;2023-12-22T02:37:51;4.80;99.90
3940;DHT22;1984;48.312;9.244;2023-12-22T02:40:17;4.90;99.90
3940;DHT22;1984;48.312;9.244;2023-12-22T02:42:44;4.90;99.90
3940;DHT22;1984;48.312;9.244;2023-12-22T02:45:14;4.90;99.90
3940;DHT22;1984;48.312;9.244;2023-12-22T02:47:40;4.90;99.90
3940;DHT22;1984;48.312;9.244;2023-12-22T02:50:07;4.90;99.90
3940;DHT22;1984;48.312;9.244;2023-12-22T02:52:32;4.90;99.90
3940;DHT22;1984;48.312;9.244;2023-12-22T02:54:58;4.90;99.90
3940;DHT22;1984;48.312;9.244;2023-12-22T02:57:24;4.90;99.90
3940;DHT22;1984;48.312;9.244;2023-12-22T02:59:49;4.90;99.90
3940;DHT22;1984;48.312;9.244;2023-12-22T03:02:15;4.90;99.90
3940;DHT22;1984;48.312;9.244;2023-12-22T03:04:40;5.00;99.90
3940;DHT22;1984;48.312;9.244;2023-12-22T03:07:06;5.00;99.90
3940;DHT22;1984;48.312;9.244;2023-12-22T03:09:32;5.00;99.90
3940;DHT22;1984;48.312;9.244;2023-12-22T03:11:58;5.00;99.90
3940;DHT22;1984;48.312;9.244;2023-12-22T03:14:29;5.00;99.90
3940;DHT22;1984;48.312;9.244;2023-12-22T03:16:55;5.00;99.90
3940;DHT22;1984;48.312;9.244;2023-12-22T03:19:21;5.00;99.90
3940;DHT22;1984;48.312;9.244;2023-12-22T03:21:48;4.90;99.90
3940;DHT22;1984;48.312;9.244;2023-12-22T03:24:13;4.90;99.90
3940;DHT22;1984;48.312;9.244;2023-12-22T03:26:39;4.80;99.90
3940;DHT22;1984;48.312;9.244;2023-12-22T03:29:05;4.80;99.90
3940;DHT22;1984;48.312;9.244;2023-12-22T03:31:30;4.70;99.90
3940;DHT22;1984;48.312;9.244;2023-12-22T03:33:56;4.60;99.90
3940;DHT22;1984;48.312;9.244;2023-12-22T03:36:21;4.50;99.90
3940;DHT22;1984;48.312;9.244;2023-12-22T03:38:47;4.50;99.90
3940;DHT22;1984;48.312;9.244;2023-12-22T03:41:13;4.40;99.90
3940;DHT22;1984;48.312;9.244;2023-12-22T03:43:38;4.30;99.90
3940;DHT22;1984;48.312;9.244;2023-12-22T03:46:04;4.30;99.90
3940;DHT22;1984;48.312;9.244;2023-12-22T03:48:29;4.30;99.90
3940;DHT22;1984;48.312;9.244;2023-12-22T03:50:55;4.30;99.90
3940;DHT22;1984;48.312;9.244;2023-12-22T03:53:20;4.30;99.90
3940;DHT22;1984;48.312;9.244;2023-12-22T03:55:46;4.30;99.90
3940;DHT22;1984;48.312;9.244;2023-12-22T03:58:11;4.40;99.90
3940;DHT22;1984;48.312;9.244;2023-12-22T04:00:37;4.40;99.90
3940;DHT22;1984;48.312;9.244;2023-12-22T04:03:02;4.40;99.90
3940;DHT22;1984;48.312;9.244;2023-12-22T04:05:28;4.40;99.90
3940;DHT22;1984;48.312;9.244;2023-12-22T04:07:53;4.50;99.90
3940;DHT22;1984;48.312;9.244;2023-12-22T04:10:19;4.60;99.90
3940;DHT22;1984;48.312;9.244;2023-12-22T04:12:45;4.60;99.90
3940;DHT22;1984;48.312;9.244;2023-12-22T04:15:10;4.60;99.90
3940;DHT22;1984;48.312;9.244;2023-12-22T04:17:36;4.60;99.90
3940;DHT22;1984;48.312;9.244;2023-12-22T04:20:02;4.70;99.90
3940;DHT22;1984;48.312;9.244;2023-12-22T04:22:27;4.60;99.90
3940;DHT22;1984;48.312;9.244;2023-12-22T04:24:53;4.70;99.90
3940;DHT22;1984;48.312;9.244;2023-12-22T04:27:18;4.70;99.90
3940;DHT22;1984;48.312;9.244;2023-12-22T04:29:44;4.70;99.90
3940;DHT22;1984;48.312;9.244;2023-12-22T04:32:09;4.70;99.90
3940;DHT22;1984;48.312;9.244;2023-12-22T04:34:35;4.70;99.90
3940;DHT22;1984;48.312;9.244;2023-12-22T04:37:00;4.70;99.90
3940;DHT22;1984;48.312;9.244;2023-12-22T04:39:26;4.70;99.90
3940;DHT22;1984;48.312;9.244;2023-12-22T04:41:51;4.60;99.90
3940;DHT22;1984;48.312;9.244;2023-12-22T04:44:17;4.60;99.90
3940;DHT22;1984;48.312;9.244;2023-12-22T04:46:42;4.60;99.90
3940;DHT22;1984;48.312;9.244;2023-12-22T04:49:08;4.60;99.90
3940;DHT22;1984;48.312;9.244;2023-12-22T04:51:33;4.60;99.90
3940;DHT22;1984;48.312;9.244;2023-12-22T04:53:59;4.60;99.90
3940;DHT22;1984;48.312;9.244;2023-12-22T04:56:24;4.50;99.90
3940;DHT22;1984;48.312;9.244;2023-12-22T04:58:50;4.50;99.90
3940;DHT22;1984;48.312;9.244;2023-12-22T05:01:15;4.50;99.90
3940;DHT22;1984;48.312;9.244;2023-12-22T05:03:41;4.40;99.90
3940;DHT22;1984;48.312;9.244;2023-12-22T05:06:07;4.40;99.90
3940;DHT22;1984;48.312;9.244;2023-12-22T05:08:32;4.40;99.90
3940;DHT22;1984;48.312;9.244;2023-12-22T05:10:58;4.40;99.90
3940;DHT22;1984;48.312;9.244;2023-12-22T05:13:23;4.40;99.90
3940;DHT22;1984;48.312;9.244;2023-12-22T05:15:49;4.40;99.90
3940;DHT22;1984;48.312;9.244;2023-12-22T05:18:14;4.40;99.90
3940;DHT22;1984;48.312;9.244;2023-12-22T05:20:40;4.40;99.90
3940;DHT22;1984;48.312;9.244;2023-12-22T05:23:05;4.40;99.90
3940;DHT22;1984;48.312;9.244;2023-12-22T05:25:31;4.50;99.90
3940;DHT22;1984;48.312;9.244;2023-12-22T05:27:57;4.50;99.90
3940;DHT22;1984;48.312;9.244;2023-12-22T05:30:22;4.50;99.90
3940;DHT22;1984;48.312;9.244;2023-12-22T05:32:48;4.50;99.90
3940;DHT22;1984;48.312;9.244;2023-12-22T05:35:13;4.60;99.90
3940;DHT22;1984;48.312;9.244;2023-12-22T05:37:39;4.60;99.90
3940;DHT22;1984;48.312;9.244;2023-12-22T05:40:05;4.60;99.90
3940;DHT22;1984;48.312;9.244;2023-12-22T05:42:32;4.60;99.90
3940;DHT22;1984;48.312;9.244;2023-12-22T05:44:57;4.70;99.90
3940;DHT22;1984;48.312;9.244;2023-12-22T05:47:23;4.60;99.90
3940;DHT22;1984;48.312;9.244;2023-12-22T05:49:49;4.60;99.90
3940;DHT22;1984;48.312;9.244;2023-12-22T05:52:14;4.70;99.90
3940;DHT22;1984;48.312;9.244;2023-12-22T05:54:40;4.70;99.90
3940;DHT22;1984;48.312;9.244;2023-12-22T05:57:06;4.70;99.90
3940;DHT22;1984;48.312;9.244;2023-12-22T05:59:32;4.70;99.90
3940;DHT22;1984;48.312;9.244;2023-12-22T06:01:59;4.70;99.90
3940;DHT22;1984;48.312;9.244;2023-12-22T06:04:26;4.70;99.90
3940;DHT22;1984;48.312;9.244;2023-12-22T06:06:51;4.70;99.90
3940;DHT22;1984;48.312;9.244;2023-12-22T06:09:17;4.80;99.90
3940;DHT22;1984;48.312;9.244;2023-12-22T06:11:44;4.70;99.90
3940;DHT22;1984;48.312;9.244;2023-12-22T06:14:10;4.70;99.90
3940;DHT22;1984;48.312;9.244;2023-12-22T06:16:35;4.60;99.90
3940;DHT22;1984;48.312;9.244;2023-12-22T06:19:01;4.60;99.90
3940;DHT22;1984;48.312;9.244;2023-12-22T06:21:26;4.50;99.90
3940;DHT22;1984;48.312;9.244;2023-12-22T06:23:52;4.50;99.90
3940;DHT22;1984;48.312;9.244;2023-12-22T06:26:17;4.60;99.90
3940;DHT22;1984;48.312;9.244;2023-12-22T06:28:43;4.60;99.90
3940;DHT22;1984;48.312;9.244;2023-12-22T06:31:17;4.60;99.90
3940;DHT22;1984;48.312;9.244;2023-12-22T06:33:46;4.60;99.90
3940;DHT22;1984;48.312;9.244;2023-12-22T06:36:22;4.60;99.90
3940;DHT22;1984;48.312;9.244;2023-12-22T06:38:49;4.70;99.90
3940;DHT22;1984;48.312;9.244;2023-12-22T06:41:25;4.70;99.90
3940;DHT22;1984;48.312;9.244;2023-12-22T06:43:51;4.70;99.90
3940;DHT22;1984;48.312;9.244;2023-12-22T06:46:17;4.70;99.90
3940;DHT22;1984;48.312;9.244;2023-12-22T06:48:44;4.70;99.90
3940;DHT22;1984;48.312;9.244;2023-12-22T06:51:29;4.70;99.90
3940;DHT22;1984;48.312;9.244;2023-12-22T06:54:02;4.70;99.90
3940;DHT22;1984;48.312;9.244;2023-12-22T06:56:31;4.70;99.90
3940;DHT22;1984;48.312;9.244;2023-12-22T06:58:57;4.70;99.90
3940;DHT22;1984;48.312;9.244;2023-12-22T07:03:55;4.70;99.90
3940;DHT22;1984;48.312;9.244;2023-12-22T07:06:21;4.70;99.90
3940;DHT22;1984;48.312;9.244;2023-12-22T07:11:50;4.70;99.90
3940;DHT22;1984;48.312;9.244;2023-12-22T07:14:16;4.70;99.90
3940;DHT22;1984;48.312;9.244;2023-12-22T07:16:42;4.60;99.90
3940;DHT22;1984;48.312;9.244;2023-12-22T07:19:08;4.60;99.90
3940;DHT22;1984;48.312;9.244;2023-12-22T07:21:34;4.70;99.90
3940;DHT22;1984;48.312;9.244;2023-12-22T07:24:00;4.70;99.90
3940;DHT22;1984;48.312;9.244;2023-12-22T07:26:29;4.70;99.90
3940;DHT22;1984;48.312;9.244;2023-12-22T07:28:54;4.70;99.90
3940;DHT22;1984;48.312;9.244;2023-12-22T07:31:20;4.70;99.90
3940;DHT22;1984;48.312;9.244;2023-12-22T07:33:46;4.80;99.90
3940;DHT22;1984;48.312;9.244;2023-12-22T07:36:11;4.80;99.90
3940;DHT22;1984;48.312;9.244;2023-12-22T07:38:37;4.80;99.90
3940;DHT22;1984;48.312;9.244;2023-12-22T07:41:05;4.80;99.90
3940;DHT22;1984;48.312;9.244;2023-12-22T07:43:30;4.80;99.90
3940;DHT22;1984;48.312;9.244;2023-12-22T07:45:56;4.90;99.90
3940;DHT22;1984;48.312;9.244;2023-12-22T07:48:22;5.00;99.90
3940;DHT22;1984;48.312;9.244;2023-12-22T07:50:47;5.00;99.90
3940;DHT22;1984;48.312;9.244;2023-12-22T07:53:13;5.10;99.90
3940;DHT22;1984;48.312;9.244;2023-12-22T07:55:38;5.10;99.90
3940;DHT22;1984;48.312;9.244;2023-12-22T07:58:04;5.20;99.90
3940;DHT22;1984;48.312;9.244;2023-12-22T08:00:31;5.20;99.90
3940;DHT22;1984;48.312;9.244;2023-12-22T08:02:56;5.10;99.90
3940;DHT22;1984;48.312;9.244;2023-12-22T08:05:22;5.00;99.90
3940;DHT22;1984;48.312;9.244;2023-12-22T08:07:47;5.00;99.90
3940;DHT22;1984;48.312;9.244;2023-12-22T08:10:13;5.00;99.90
3940;DHT22;1984;48.312;9.244;2023-12-22T08:12:38;5.00;99.90
3940;DHT22;1984;48.312;9.244;2023-12-22T08:15:04;5.00;99.90
3940;DHT22;1984;48.312;9.244;2023-12-22T08:17:30;5.00;99.90
3940;DHT22;1984;48.312;9.244;2023-12-22T08:19:56;5.00;99.90
3940;DHT22;1984;48.312;9.244;2023-12-22T08:22:22;5.10;99.90
3940;DHT22;1984;48.312;9.244;2023-12-22T08:24:48;5.10;99.90
3940;DHT22;1984;48.312;9.244;2023-12-22T08:27:14;5.10;99.90
3940;DHT22;1984;48.312;9.244;2023-12-22T08:29:39;5.10;99.90
3940;DHT22;1984;48.312;9.244;2023-12-22T08:32:05;5.10;99.90
3940;DHT22;1984;48.312;9.244;2023-12-22T08:34:31;5.10;99.90
3940;DHT22;1984;48.312;9.244;2023-12-22T08:36:56;5.10;99.90
3940;DHT22;1984;48.312;9.244;2023-12-22T08:39:22;5.10;99.90
3940;DHT22;1984;48.312;9.244;2023-12-22T08:41:49;5.10;99.90
3940;DHT22;1984;48.312;9.244;2023-12-22T08:44:15;5.20;99.90
3940;DHT22;1984;48.312;9.244;2023-12-22T08:46:40;5.20;99.90
3940;DHT22;1984;48.312;9.244;2023-12-22T08:49:06;5.10;99.90
3940;DHT22;1984;48.312;9.244;2023-12-22T08:51:32;5.10;99.90
3940;DHT22;1984;48.312;9.244;2023-12-22T08:53:59;5.10;99.90
3940;DHT22;1984;48.312;9.244;2023-12-22T08:56:25;5.10;99.90
3940;DHT22;1984;48.312;9.244;2023-12-22T08:58:52;5.10;99.90
3940;DHT22;1984;48.312;9.244;2023-12-22T09:01:20;5.10;99.90
3940;DHT22;1984;48.312;9.244;2023-12-22T09:03:46;5.10;99.90
3940;DHT22;1984;48.312;9.244;2023-12-22T09:06:15;5.20;99.90
3940;DHT22;1984;48.312;9.244;2023-12-22T09:08:42;5.10;99.90
3940;DHT22;1984;48.312;9.244;2023-12-22T09:11:08;5.20;99.90
3940;DHT22;1984;48.312;9.244;2023-12-22T09:13:34;5.10;99.90
3940;DHT22;1984;48.312;9.244;2023-12-22T09:16:01;5.10;99.90
3940;DHT22;1984;48.312;9.244;2023-12-22T09:18:28;5.00;99.90
3940;DHT22;1984;48.312;9.244;2023-12-22T09:20:53;5.00;99.90
3940;DHT22;1984;48.312;9.244;2023-12-22T09:23:19;5.00;99.90
3940;DHT22;1984;48.312;9.244;2023-12-22T09:25:45;5.10;99.90
3940;DHT22;1984;48.312;9.244;2023-12-22T09:28:11;5.10;99.90
3940;DHT22;1984;48.312;9.244;2023-12-22T09:30:36;5.10;99.90
3940;DHT22;1984;48.312;9.244;2023-12-22T09:33:02;5.00;99.90
3940;DHT22;1984;48.312;9.244;2023-12-22T09:35:27;5.00;99.90
3940;DHT22;1984;48.312;9.244;2023-12-22T09:37:53;5.00;99.90
3940;DHT22;1984;48.312;9.244;2023-12-22T09:40:19;5.00;99.90
3940;DHT22;1984;48.312;9.244;2023-12-22T09:42:46;5.00;99.90
3940;DHT22;1984;48.312;9.244;2023-12-22T09:45:12;5.00;99.90
3940;DHT22;1984;48.312;9.244;2023-12-22T09:47:42;5.00;99.90
3940;DHT22;1984;48.312;9.244;2023-12-22T09:50:08;5.00;99.90
3940;DHT22;1984;48.312;9.244;2023-12-22T09:52:35;5.00;99.90
3940;DHT22;1984;48.312;9.244;2023-12-22T09:55:01;5.00;99.90
3940;DHT22;1984;48.312;9.244;2023-12-22T09:57:28;5.10;99.90
3940;DHT22;1984;48.312;9.244;2023-12-22T09:59:55;5.10;99.90
3940;DHT22;1984;48.312;9.244;2023-12-22T10:02:27;5.10;99.90
3940;DHT22;1984;48.312;9.244;2023-12-22T10:04:53;5.10;99.90
3940;DHT22;1984;48.312;9.244;2023-12-22T10:07:19;5.10;99.90
3940;DHT22;1984;48.312;9.244;2023-12-22T10:09:46;5.10;99.90
3940;DHT22;1984;48.312;9.244;2023-12-22T10:12:13;5.10;99.90
3940;DHT22;1984;48.312;9.244;2023-12-22T10:14:40;5.20;99.90
3940;DHT22;1984;48.312;9.244;2023-12-22T10:17:06;5.20;99.90
3940;DHT22;1984;48.312;9.244;2023-12-22T10:19:32;5.30;99.90
3940;DHT22;1984;48.312;9.244;2023-12-22T10:21:57;5.30;99.90
3940;DHT22;1984;48.312;9.244;2023-12-22T10:24:43;5.30;99.90
3940;DHT22;1984;48.312;9.244;2023-12-22T10:27:10;5.30;99.90
3940;DHT22;1984;48.312;9.244;2023-12-22T10:29:36;5.30;99.90
3940;DHT22;1984;48.312;9.244;2023-12-22T10:32:02;5.20;99.90
3940;DHT22;1984;48.312;9.244;2023-12-22T10:34:32;5.20;99.90
3940;DHT22;1984;48.312;9.244;2023-12-22T10:36:59;5.20;99.90
3940;DHT22;1984;48.312;9.244;2023-12-22T10:39:29;5.20;99.90
3940;DHT22;1984;48.312;9.244;2023-12-22T10:42:00;5.20;99.90
3940;DHT22;1984;48.312;9.244;2023-12-22T10:44:29;5.20;99.90
3940;DHT22;1984;48.312;9.244;2023-12-22T10:46:55;5.20;99.90
3940;DHT22;1984;48.312;9.244;2023-12-22T10:49:21;5.30;99.90
3940;DHT22;1984;48.312;9.244;2023-12-22T10:51:47;5.30;99.90
3940;DHT22;1984;48.312;9.244;2023-12-22T10:54:13;5.30;99.90
3940;DHT22;1984;48.312;9.244;2023-12-22T10:56:41;5.40;99.90
3940;DHT22;1984;48.312;9.244;2023-12-22T10:59:08;5.40;99.90
3940;DHT22;1984;48.312;9.244;2023-12-22T11:01:36;5.40;99.90
3940;DHT22;1984;48.312;9.244;2023-12-22T11:04:06;5.40;99.90
3940;DHT22;1984;48.312;9.244;2023-12-22T11:06:36;5.50;99.90
3940;DHT22;1984;48.312;9.244;2023-12-22T11:09:09;5.50;99.90
3940;DHT22;1984;48.312;9.244;2023-12-22T11:11:39;5.50;99.90
3940;DHT22;1984;48.312;9.244;2023-12-22T11:14:06;5.50;99.90
3940;DHT22;1984;48.312;9.244;2023-12-22T11:16:33;5.50;99.90
3940;DHT22;1984;48.312;9.244;2023-12-22T11:19:00;5.50;99.90
3940;DHT22;1984;48.312;9.244;2023-12-22T11:21:27;5.50;99.90
3940;DHT22;1984;48.312;9.244;2023-12-22T11:23:54;5.50;99.90
3940;DHT22;1984;48.312;9.244;2023-12-22T11:26:21;5.50;99.90
3940;DHT22;1984;48.312;9.244;2023-12-22T11:28:48;5.50;99.90
3940;DHT22;1984;48.312;9.244;2023-12-22T11:31:15;5.50;99.90
3940;DHT22;1984;48.312;9.244;2023-12-22T11:33:44;5.50;99.90
3940;DHT22;1984;48.312;9.244;2023-12-22T11:36:12;5.50;99.90
3940;DHT22;1984;48.312;9.244;2023-12-22T11:38:42;5.50;99.90
3940;DHT22;1984;48.312;9.244;2023-12-22T11:41:11;5.60;99.90
3940;DHT22;1984;48.312;9.244;2023-12-22T11:43:39;5.60;99.90
3940;DHT22;1984;48.312;9.244;2023-12-22T11:46:05;5.60;99.90
3940;DHT22;1984;48.312;9.244;2023-12-22T11:48:31;5.70;99.90
3940;DHT22;1984;48.312;9.244;2023-12-22T11:50:56;5.60;99.90
3940;DHT22;1984;48.312;9.244;2023-12-22T11:53:23;5.60;99.90
3940;DHT22;1984;48.312;9.244;2023-12-22T11:56:06;5.60;99.90
3940;DHT22;1984;48.312;9.244;2023-12-22T12:01:12;5.60;99.90
3940;DHT22;1984;48.312;9.244;2023-12-22T12:04:01;5.60;99.90
3940;DHT22;1984;48.312;9.244;2023-12-22T12:08:55;5.60;99.90
3940;DHT22;1984;48.312;9.244;2023-12-22T12:11:21;5.60;99.90
3940;DHT22;1984;48.312;9.244;2023-12-22T12:13:47;5.70;99.90
3940;DHT22;1984;48.312;9.244;2023-12-22T12:16:14;5.70;99.90
3940;DHT22;1984;48.312;9.244;2023-12-22T12:18:41;5.70;99.90
3940;DHT22;1984;48.312;9.244;2023-12-22T12:21:08;5.70;99.90
3940;DHT22;1984;48.312;9.244;2023-12-22T12:23:34;5.70;99.90
3940;DHT22;1984;48.312;9.244;2023-12-22T12:26:00;5.70;99.90
3940;DHT22;1984;48.312;9.244;2023-12-22T12:28:27;5.70;99.90
3940;DHT22;1984;48.312;9.244;2023-12-22T12:30:58;5.80;99.90
3940;DHT22;1984;48.312;9.244;2023-12-22T12:33:27;5.80;99.90
3940;DHT22;1984;48.312;9.244;2023-12-22T12:35:54;5.80;99.90
3940;DHT22;1984;48.312;9.244;2023-12-22T12:38:23;5.80;99.90
3940;DHT22;1984;48.312;9.244;2023-12-22T12:40:50;5.80;99.90
3940;DHT22;1984;48.312;9.244;2023-12-22T12:43:17;5.80;99.90
3940;DHT22;1984;48.312;9.244;2023-12-22T12:45:43;5.80;99.90
3940;DHT22;1984;48.312;9.244;2023-12-22T12:48:09;5.90;99.90
3940;DHT22;1984;48.312;9.244;2023-12-22T12:50:34;5.80;99.90
3940;DHT22;1984;48.312;9.244;2023-12-22T12:53:01;5.80;99.90
3940;DHT22;1984;48.312;9.244;2023-12-22T12:55:27;5.80;99.90
3940;DHT22;1984;48.312;9.244;2023-12-22T12:57:54;5.90;99.90
3940;DHT22;1984;48.312;9.244;2023-12-22T13:00:31;5.90;99.90
3940;DHT22;1984;48.312;9.244;2023-12-22T13:03:02;5.90;99.90
3940;DHT22;1984;48.312;9.244;2023-12-22T13:05:31;6.00;99.90
3940;DHT22;1984;48.312;9.244;2023-12-22T13:08:14;6.00;99.90
3940;DHT22;1984;48.312;9.244;2023-12-22T13:10:40;6.00;99.90
3940;DHT22;1984;48.312;9.244;2023-12-22T13:13:06;6.00;99.90
3940;DHT22;1984;48.312;9.244;2023-12-22T13:15:32;6.10;99.90
3940;DHT22;1984;48.312;9.244;2023-12-22T13:17:58;6.10;99.90
3940;DHT22;1984;48.312;9.244;2023-12-22T13:20:24;6.10;99.90
3940;DHT22;1984;48.312;9.244;2023-12-22T13:22:51;6.10;99.90
3940;DHT22;1984;48.312;9.244;2023-12-22T13:25:17;6.10;99.90
3940;DHT22;1984;48.312;9.244;2023-12-22T13:27:46;6.10;99.90
3940;DHT22;1984;48.312;9.244;2023-12-22T13:30:13;6.10;99.90
3940;DHT22;1984;48.312;9.244;2023-12-22T13:32:39;6.10;99.90
3940;DHT22;1984;48.312;9.244;2023-12-22T13:35:05;6.10;99.90
3940;DHT22;1984;48.312;9.244;2023-12-22T13:37:31;6.20;99.90
3940;DHT22;1984;48.312;9.244;2023-12-22T13:39:56;6.20;99.90
3940;DHT22;1984;48.312;9.244;2023-12-22T13:42:23;6.20;99.90
3940;DHT22;1984;48.312;9.244;2023-12-22T13:44:50;6.20;99.90
3940;DHT22;1984;48.312;9.244;2023-12-22T13:47:21;6.20;99.90
3940;DHT22;1984;48.312;9.244;2023-12-22T13:49:47;6.30;99.90
3940;DHT22;1984;48.312;9.244;2023-12-22T13:52:31;6.30;99.90
3940;DHT22;1984;48.312;9.244;2023-12-22T13:55:13;6.30;99.90
3940;DHT22;1984;48.312;9.244;2023-12-22T13:57:40;6.40;99.90
3940;DHT22;1984;48.312;9.244;2023-12-22T14:00:27;6.40;99.90
3940;DHT22;1984;48.312;9.244;2023-12-22T14:02:53;6.40;99.90
3940;DHT22;1984;48.312;9.244;2023-12-22T14:05:19;6.40;99.90
3940;DHT22;1984;48.312;9.244;2023-12-22T14:07:44;6.40;99.90
3940;DHT22;1984;48.312;9.244;2023-12-22T14:10:11;6.40;99.90
3940;DHT22;1984;48.312;9.244;2023-12-22T14:12:37;6.40;99.90
3940;DHT22;1984;48.312;9.244;2023-12-22T14:15:06;6.40;99.90
3940;DHT22;1984;48.312;9.244;2023-12-22T14:17:32;6.40;99.90
3940;DHT22;1984;48.312;9.244;2023-12-22T14:19:57;6.40;99.90
3940;DHT22;1984;48.312;9.244;2023-12-22T14:22:23;6.40;99.90
3940;DHT22;1984;48.312;9.244;2023-12-22T14:24:48;6.40;99.90
3940;DHT22;1984;48.312;9.244;2023-12-22T14:27:14;6.40;99.90
3940;DHT22;1984;48.312;9.244;2023-12-22T14:29:43;6.40;99.90
3940;DHT22;1984;48.312;9.244;2023-12-22T14:32:08;6.40;99.90
3940;DHT22;1984;48.312;9.244;2023-12-22T14:34:34;6.40;99.90
3940;DHT22;1984;48.312;9.244;2023-12-22T14:37:00;6.40;99.90
3940;DHT22;1984;48.312;9.244;2023-12-22T14:39:26;6.40;99.90
3940;DHT22;1984;48.312;9.244;2023-12-22T14:41:52;6.30;99.90
3940;DHT22;1984;48.312;9.244;2023-12-22T14:44:17;6.40;99.90
3940;DHT22;1984;48.312;9.244;2023-12-22T14:46:43;6.40;99.90
3940;DHT22;1984;48.312;9.244;2023-12-22T14:49:10;6.40;99.90
3940;DHT22;1984;48.312;9.244;2023-12-22T14:51:39;6.40;99.90
3940;DHT22;1984;48.312;9.244;2023-12-22T14:54:07;6.40;99.90
3940;DHT22;1984;48.312;9.244;2023-12-22T14:56:38;6.40;99.90
3940;DHT22;1984;48.312;9.244;2023-12-22T14:59:04;6.40;99.90
3940;DHT22;1984;48.312;9.244;2023-12-22T15:01:29;6.40;99.90
3940;DHT22;1984;48.312;9.244;2023-12-22T15:03:58;6.40;99.90
3940;DHT22;1984;48.312;9.244;2023-12-22T15:06:24;6.40;99.90
3940;DHT22;1984;48.312;9.244;2023-12-22T15:08:49;6.40;99.90
3940;DHT22;1984;48.312;9.244;2023-12-22T15:11:15;6.40;99.90
3940;DHT22;1984;48.312;9.244;2023-12-22T15:13:40;6.40;99.90
3940;DHT22;1984;48.312;9.244;2023-12-22T15:16:06;6.50;99.90
3940;DHT22;1984;48.312;9.244;2023-12-22T15:18:32;6.50;99.90
3940;DHT22;1984;48.312;9.244;2023-12-22T15:20:57;6.50;99.90
3940;DHT22;1984;48.312;9.244;2023-12-22T15:23:23;6.50;99.90
3940;DHT22;1984;48.312;9.244;2023-12-22T15:25:48;6.50;99.90
3940;DHT22;1984;48.312;9.244;2023-12-22T15:28:14;6.50;99.90
3940;DHT22;1984;48.312;9.244;2023-12-22T15:30:39;6.50;99.90
3940;DHT22;1984;48.312;9.244;2023-12-22T15:33:05;6.50;99.90
3940;DHT22;1984;48.312;9.244;2023-12-22T15:35:30;6.50;99.90
3940;DHT22;1984;48.312;9.244;2023-12-22T15:37:56;6.40;99.90
3940;DHT22;1984;48.312;9.244;2023-12-22T15:40:22;6.50;99.90
3940;DHT22;1984;48.312;9.244;2023-12-22T15:42:48;6.40;99.90
3940;DHT22;1984;48.312;9.244;2023-12-22T15:45:13;6.50;99.90
3940;DHT22;1984;48.312;9.244;2023-12-22T15:47:39;6.50;99.90
3940;DHT22;1984;48.312;9.244;2023-12-22T15:50:06;6.50;99.90
3940;DHT22;1984;48.312;9.244;2023-12-22T15:52:34;6.50;99.90
3940;DHT22;1984;48.312;9.244;2023-12-22T15:55:00;6.50;99.90
3940;DHT22;1984;48.312;9.244;2023-12-22T15:57:25;6.50;99.90
3940;DHT22;1984;48.312;9.244;2023-12-22T15:59:51;6.50;99.90
3940;DHT22;1984;48.312;9.244;2023-12-22T16:02:16;6.40;99.90
3940;DHT22;1984;48.312;9.244;2023-12-22T16:04:42;6.40;99.90
3940;DHT22;1984;48.312;9.244;2023-12-22T16:07:08;6.40;99.90
3940;DHT22;1984;48.312;9.244;2023-12-22T16:09:34;6.40;99.90
3940;DHT22;1984;48.312;9.244;2023-12-22T16:12:00;6.40;99.90
3940;DHT22;1984;48.312;9.244;2023-12-22T16:14:25;6.40;99.90
3940;DHT22;1984;48.312;9.244;2023-12-22T16:16:57;6.40;99.90
3940;DHT22;1984;48.312;9.244;2023-12-22T16:19:23;6.40;99.90
3940;DHT22;1984;48.312;9.244;2023-12-22T16:21:48;6.40;99.90
3940;DHT22;1984;48.312;9.244;2023-12-22T16:24:21;6.40;99.90